sensor_id;sensor_type;location;lat;lon;timestamp;temperature;humidity
5808;DHT22;2930;42.678;23.312;2022-12-24T00:02:30;5.10;88.60
5808;DHT22;2930;42.678;23.312;2022-12-24T00:05:00;5.10;88.90
5808;DHT22;2930;42.678;23.312;2022-12-24T00:07:39;5.10;88.20
5808;DHT22;2930;42.678;23.312;2022-12-24T00:10:10;5.00;87.70
5808;DHT22;2930;42.678;23.312;2022-12-24T00:12:40;5.00;87.40
5808;DHT22;2930;42.678;23.312;2022-12-24T00:15:14;5.00;87.60
5808;DHT22;2930;42.678;23.312;2022-12-24T00:17:47;5.00;87.70
5808;DHT22;2930;42.678;23.312;2022-12-24T00:20:17;5.00;87.30
5808;DHT22;2930;42.678;23.312;2022-12-24T00:22:52;5.00;87.20
5808;DHT22;2930;42.678;23.312;2022-12-24T00:25:22;5.00;86.80
5808;DHT22;2930;42.678;23.312;2022-12-24T00:27:52;4.90;86.70
5808;DHT22;2930;42.678;23.312;2022-12-24T00:30:23;4.90;86.70
5808;DHT22;2930;42.678;23.312;2022-12-24T00:32:53;5.00;87.20
5808;DHT22;2930;42.678;23.312;2022-12-24T00:35:26;4.90;86.90
5808;DHT22;2930;42.678;23.312;2022-12-24T00:37:57;4.90;86.80
5808;DHT22;2930;42.678;23.312;2022-12-24T00:40:27;4.90;87.40
5808;DHT22;2930;42.678;23.312;2022-12-24T00:42:58;4.90;87.10
5808;DHT22;2930;42.678;23.312;2022-12-24T00:45:38;4.90;87.00
5808;DHT22;2930;42.678;23.312;2022-12-24T00:48:11;4.80;87.30
5808;DHT22;2930;42.678;23.312;2022-12-24T00:50:42;4.80;87.00
5808;DHT22;2930;42.678;23.312;2022-12-24T00:53:12;4.80;86.50
5808;DHT22;2930;42.678;23.312;2022-12-24T00:55:45;4.80;86.70
5808;DHT22;2930;42.678;23.312;2022-12-24T00:58:15;4.80;87.10
5808;DHT22;2930;42.678;23.312;2022-12-24T01:00:45;4.80;87.00
5808;DHT22;2930;42.678;23.312;2022-12-24T01:03:16;4.70;87.00
5808;DHT22;2930;42.678;23.312;2022-12-24T01:05:46;4.70;87.10
5808;DHT22;2930;42.678;23.312;2022-12-24T01:08:16;4.70;87.10
5808;DHT22;2930;42.678;23.312;2022-12-24T01:10:46;4.70;87.00
5808;DHT22;2930;42.678;23.312;2022-12-24T01:13:17;4.60;86.70
5808;DHT22;2930;42.678;23.312;2022-12-24T01:15:47;4.60;86.60
5808;DHT22;2930;42.678;23.312;2022-12-24T01:18:18;4.60;86.50
5808;DHT22;2930;42.678;23.312;2022-12-24T01:20:58;4.60;86.70
5808;DHT22;2930;42.678;23.312;2022-12-24T01:23:32;4.60;86.90
5808;DHT22;2930;42.678;23.312;2022-12-24T01:26:05;4.50;86.70
5808;DHT22;2930;42.678;23.312;2022-12-24T01:28:39;4.50;86.80
5808;DHT22;2930;42.678;23.312;2022-12-24T01:31:28;4.50;86.80
5808;DHT22;2930;42.678;23.312;2022-12-24T01:34:01;4.40;86.60
5808;DHT22;2930;42.678;23.312;2022-12-24T01:36:35;4.40;86.60
5808;DHT22;2930;42.678;23.312;2022-12-24T01:39:05;4.40;86.70
5808;DHT22;2930;42.678;23.312;2022-12-24T01:41:38;4.40;87.00
5808;DHT22;2930;42.678;23.312;2022-12-24T01:44:32;4.40;87.00
5808;DHT22;2930;42.678;23.312;2022-12-24T01:49:41;4.20;86.80
5808;DHT22;2930;42.678;23.312;2022-12-24T01:52:30;4.20;86.70
5808;DHT22;2930;42.678;23.312;2022-12-24T01:55:07;4.20;86.20
5808;DHT22;2930;42.678;23.312;2022-12-24T01:57:58;4.20;86.70
5808;DHT22;2930;42.678;23.312;2022-12-24T02:00:31;4.10;86.50
5808;DHT22;2930;42.678;23.312;2022-12-24T02:03:05;4.10;86.70
5808;DHT22;2930;42.678;23.312;2022-12-24T02:05:51;4.10;86.90
5808;DHT22;2930;42.678;23.312;2022-12-24T02:08:22;4.00;86.90
5808;DHT22;2930;42.678;23.312;2022-12-24T02:11:22;4.00;87.10
5808;DHT22;2930;42.678;23.312;2022-12-24T02:13:58;4.00;86.90
5808;DHT22;2930;42.678;23.312;2022-12-24T02:25:01;3.90;87.30
5808;DHT22;2930;42.678;23.312;2022-12-24T02:27:54;3.90;87.30
5808;DHT22;2930;42.678;23.312;2022-12-24T02:33:11;3.80;87.20
5808;DHT22;2930;42.678;23.312;2022-12-24T02:41:38;3.80;87.70
5808;DHT22;2930;42.678;23.312;2022-12-24T02:44:26;3.80;88.10
5808;DHT22;2930;42.678;23.312;2022-12-24T02:47:04;3.80;88.70
5808;DHT22;2930;42.678;23.312;2022-12-24T02:49:41;3.80;88.30
5808;DHT22;2930;42.678;23.312;2022-12-24T02:52:35;3.70;88.20
5808;DHT22;2930;42.678;23.312;2022-12-24T03:06:55;3.70;88.00
5808;DHT22;2930;42.678;23.312;2022-12-24T03:09:37;3.70;88.00
5808;DHT22;2930;42.678;23.312;2022-12-24T03:12:22;3.70;87.70
5808;DHT22;2930;42.678;23.312;2022-12-24T03:14:54;3.60;87.70
5808;DHT22;2930;42.678;23.312;2022-12-24T03:17:30;3.60;87.70
5808;DHT22;2930;42.678;23.312;2022-12-24T03:20:04;3.60;87.70
5808;DHT22;2930;42.678;23.312;2022-12-24T03:22:35;3.60;87.40
5808;DHT22;2930;42.678;23.312;2022-12-24T03:25:07;3.60;87.60
5808;DHT22;2930;42.678;23.312;2022-12-24T03:27:39;3.60;87.50
5808;DHT22;2930;42.678;23.312;2022-12-24T03:30:14;3.50;87.20
5808;DHT22;2930;42.678;23.312;2022-12-24T03:32:47;3.50;87.30
5808;DHT22;2930;42.678;23.312;2022-12-24T03:35:20;3.50;87.30
5808;DHT22;2930;42.678;23.312;2022-12-24T03:37:50;3.40;87.30
5808;DHT22;2930;42.678;23.312;2022-12-24T03:40:20;3.40;87.10
5808;DHT22;2930;42.678;23.312;2022-12-24T03:42:51;3.40;87.10
5808;DHT22;2930;42.678;23.312;2022-12-24T03:45:21;3.30;87.20
5808;DHT22;2930;42.678;23.312;2022-12-24T03:47:51;3.30;87.20
5808;DHT22;2930;42.678;23.312;2022-12-24T03:50:22;3.30;87.10
5808;DHT22;2930;42.678;23.312;2022-12-24T03:52:58;3.30;87.20
5808;DHT22;2930;42.678;23.312;2022-12-24T03:55:28;3.20;87.20
5808;DHT22;2930;42.678;23.312;2022-12-24T03:58:03;3.20;87.10
5808;DHT22;2930;42.678;23.312;2022-12-24T04:00:36;3.20;87.30
5808;DHT22;2930;42.678;23.312;2022-12-24T04:03:07;3.20;87.40
5808;DHT22;2930;42.678;23.312;2022-12-24T04:05:40;3.20;87.30
5808;DHT22;2930;42.678;23.312;2022-12-24T04:08:16;3.20;87.60
5808;DHT22;2930;42.678;23.312;2022-12-24T04:10:47;3.20;87.40
5808;DHT22;2930;42.678;23.312;2022-12-24T04:13:17;3.20;87.70
5808;DHT22;2930;42.678;23.312;2022-12-24T04:16:01;3.20;88.00
5808;DHT22;2930;42.678;23.312;2022-12-24T04:18:34;3.10;88.00
5808;DHT22;2930;42.678;23.312;2022-12-24T04:21:06;3.10;88.60
5808;DHT22;2930;42.678;23.312;2022-12-24T04:23:38;3.10;88.90
5808;DHT22;2930;42.678;23.312;2022-12-24T04:26:13;3.10;88.90
5808;DHT22;2930;42.678;23.312;2022-12-24T04:28:44;3.00;88.80
5808;DHT22;2930;42.678;23.312;2022-12-24T04:31:16;3.00;89.40
5808;DHT22;2930;42.678;23.312;2022-12-24T04:33:46;3.00;89.60
5808;DHT22;2930;42.678;23.312;2022-12-24T04:36:21;2.90;89.40
5808;DHT22;2930;42.678;23.312;2022-12-24T04:38:54;2.90;89.60
5808;DHT22;2930;42.678;23.312;2022-12-24T04:41:27;2.90;89.10
5808;DHT22;2930;42.678;23.312;2022-12-24T04:44:01;2.90;89.50
5808;DHT22;2930;42.678;23.312;2022-12-24T04:46:32;2.90;89.50
5808;DHT22;2930;42.678;23.312;2022-12-24T04:49:03;2.90;89.20
5808;DHT22;2930;42.678;23.312;2022-12-24T04:51:36;3.00;89.50
5808;DHT22;2930;42.678;23.312;2022-12-24T04:54:06;3.00;89.80
5808;DHT22;2930;42.678;23.312;2022-12-24T04:56:37;3.00;90.10
5808;DHT22;2930;42.678;23.312;2022-12-24T04:59:07;3.00;90.30
5808;DHT22;2930;42.678;23.312;2022-12-24T05:01:37;3.00;90.50
5808;DHT22;2930;42.678;23.312;2022-12-24T05:04:07;3.00;90.60
5808;DHT22;2930;42.678;23.312;2022-12-24T05:06:38;3.00;90.60
5808;DHT22;2930;42.678;23.312;2022-12-24T05:09:08;3.00;90.70
5808;DHT22;2930;42.678;23.312;2022-12-24T05:11:42;3.00;90.80
5808;DHT22;2930;42.678;23.312;2022-12-24T05:14:15;3.00;90.30
5808;DHT22;2930;42.678;23.312;2022-12-24T05:16:45;3.00;90.10
5808;DHT22;2930;42.678;23.312;2022-12-24T05:19:15;3.00;89.90
5808;DHT22;2930;42.678;23.312;2022-12-24T05:21:45;3.00;89.70
5808;DHT22;2930;42.678;23.312;2022-12-24T05:24:35;3.00;89.60
5808;DHT22;2930;42.678;23.312;2022-12-24T05:27:22;3.10;89.60
5808;DHT22;2930;42.678;23.312;2022-12-24T05:29:53;3.00;89.40
5808;DHT22;2930;42.678;23.312;2022-12-24T05:32:18;3.00;89.00
5808;DHT22;2930;42.678;23.312;2022-12-24T05:34:45;3.00;89.20
5808;DHT22;2930;42.678;23.312;2022-12-24T05:37:12;3.00;88.90
5808;DHT22;2930;42.678;23.312;2022-12-24T05:39:38;3.00;88.90
5808;DHT22;2930;42.678;23.312;2022-12-24T05:42:08;3.00;88.80
5808;DHT22;2930;42.678;23.312;2022-12-24T05:44:34;3.00;88.90
5808;DHT22;2930;42.678;23.312;2022-12-24T05:47:01;3.00;88.80
5808;DHT22;2930;42.678;23.312;2022-12-24T05:49:28;3.00;88.70
5808;DHT22;2930;42.678;23.312;2022-12-24T05:51:55;3.00;88.50
5808;DHT22;2930;42.678;23.312;2022-12-24T05:54:20;3.00;88.60
5808;DHT22;2930;42.678;23.312;2022-12-24T05:56:50;3.00;88.70
5808;DHT22;2930;42.678;23.312;2022-12-24T05:59:18;3.00;88.60
5808;DHT22;2930;42.678;23.312;2022-12-24T06:01:48;3.00;88.90
5808;DHT22;2930;42.678;23.312;2022-12-24T06:04:21;3.00;88.90
5808;DHT22;2930;42.678;23.312;2022-12-24T06:06:54;3.10;88.80
5808;DHT22;2930;42.678;23.312;2022-12-24T06:09:27;3.10;88.80
5808;DHT22;2930;42.678;23.312;2022-12-24T06:12:00;3.10;89.50
5808;DHT22;2930;42.678;23.312;2022-12-24T06:14:34;3.10;89.30
5808;DHT22;2930;42.678;23.312;2022-12-24T06:17:04;3.10;89.20
5808;DHT22;2930;42.678;23.312;2022-12-24T06:19:35;3.20;89.30
5808;DHT22;2930;42.678;23.312;2022-12-24T06:22:08;3.20;89.30
5808;DHT22;2930;42.678;23.312;2022-12-24T06:24:38;3.30;89.50
5808;DHT22;2930;42.678;23.312;2022-12-24T06:27:09;3.30;89.70
5808;DHT22;2930;42.678;23.312;2022-12-24T06:29:39;3.40;90.00
5808;DHT22;2930;42.678;23.312;2022-12-24T06:32:09;3.40;90.20
5808;DHT22;2930;42.678;23.312;2022-12-24T06:34:40;3.50;90.10
5808;DHT22;2930;42.678;23.312;2022-12-24T06:37:10;3.50;90.30
5808;DHT22;2930;42.678;23.312;2022-12-24T06:39:46;3.70;90.90
5808;DHT22;2930;42.678;23.312;2022-12-24T06:42:16;3.90;91.30
5808;DHT22;2930;42.678;23.312;2022-12-24T06:44:46;4.00;91.20
5808;DHT22;2930;42.678;23.312;2022-12-24T06:47:19;4.10;90.90
5808;DHT22;2930;42.678;23.312;2022-12-24T06:49:50;4.20;90.50
5808;DHT22;2930;42.678;23.312;2022-12-24T06:52:20;4.20;90.10
5808;DHT22;2930;42.678;23.312;2022-12-24T06:54:50;4.30;89.80
5808;DHT22;2930;42.678;23.312;2022-12-24T06:57:23;4.40;89.70
5808;DHT22;2930;42.678;23.312;2022-12-24T06:59:54;4.40;89.70
5808;DHT22;2930;42.678;23.312;2022-12-24T07:02:24;4.50;89.90
5808;DHT22;2930;42.678;23.312;2022-12-24T07:04:55;4.70;90.50
5808;DHT22;2930;42.678;23.312;2022-12-24T07:07:25;5.00;91.30
5808;DHT22;2930;42.678;23.312;2022-12-24T07:09:58;5.40;92.10
5808;DHT22;2930;42.678;23.312;2022-12-24T07:12:28;5.90;92.70
5808;DHT22;2930;42.678;23.312;2022-12-24T07:14:58;6.40;93.00
5808;DHT22;2930;42.678;23.312;2022-12-24T07:17:34;7.00;92.40
5808;DHT22;2930;42.678;23.312;2022-12-24T07:20:06;7.50;91.60
5808;DHT22;2930;42.678;23.312;2022-12-24T07:22:36;8.10;90.60
5808;DHT22;2930;42.678;23.312;2022-12-24T07:25:07;8.50;88.60
5808;DHT22;2930;42.678;23.312;2022-12-24T07:27:38;8.80;85.20
5808;DHT22;2930;42.678;23.312;2022-12-24T07:30:11;8.90;83.50
5808;DHT22;2930;42.678;23.312;2022-12-24T07:32:42;8.90;81.90
5808;DHT22;2930;42.678;23.312;2022-12-24T07:35:12;8.90;81.60
5808;DHT22;2930;42.678;23.312;2022-12-24T07:37:45;8.80;81.00
5808;DHT22;2930;42.678;23.312;2022-12-24T07:40:16;8.70;80.70
5808;DHT22;2930;42.678;23.312;2022-12-24T07:42:46;8.60;80.70
5808;DHT22;2930;42.678;23.312;2022-12-24T07:45:16;8.50;80.70
5808;DHT22;2930;42.678;23.312;2022-12-24T07:47:46;8.50;81.10
5808;DHT22;2930;42.678;23.312;2022-12-24T07:50:20;8.40;81.30
5808;DHT22;2930;42.678;23.312;2022-12-24T07:52:53;8.40;81.60
5808;DHT22;2930;42.678;23.312;2022-12-24T07:55:23;8.40;82.00
5808;DHT22;2930;42.678;23.312;2022-12-24T07:57:56;8.50;82.20
5808;DHT22;2930;42.678;23.312;2022-12-24T08:00:32;8.50;81.90
5808;DHT22;2930;42.678;23.312;2022-12-24T08:03:23;8.60;81.80
5808;DHT22;2930;42.678;23.312;2022-12-24T08:05:57;8.70;82.10
5808;DHT22;2930;42.678;23.312;2022-12-24T08:08:27;8.70;80.70
5808;DHT22;2930;42.678;23.312;2022-12-24T08:11:07;8.90;81.90
5808;DHT22;2930;42.678;23.312;2022-12-24T08:13:43;9.10;82.30
5808;DHT22;2930;42.678;23.312;2022-12-24T08:16:14;9.10;80.20
5808;DHT22;2930;42.678;23.312;2022-12-24T08:18:44;9.20;80.50
5808;DHT22;2930;42.678;23.312;2022-12-24T08:21:14;9.20;80.70
5808;DHT22;2930;42.678;23.312;2022-12-24T08:23:47;9.30;80.10
5808;DHT22;2930;42.678;23.312;2022-12-24T08:26:17;9.10;79.90
5808;DHT22;2930;42.678;23.312;2022-12-24T08:34:44;8.90;80.60
5808;DHT22;2930;42.678;23.312;2022-12-24T08:37:10;8.80;79.80
5808;DHT22;2930;42.678;23.312;2022-12-24T08:39:37;8.70;80.00
5808;DHT22;2930;42.678;23.312;2022-12-24T08:42:07;8.60;79.80
5808;DHT22;2930;42.678;23.312;2022-12-24T08:44:34;8.50;80.10
5808;DHT22;2930;42.678;23.312;2022-12-24T08:47:00;8.50;80.50
5808;DHT22;2930;42.678;23.312;2022-12-24T08:49:27;8.50;80.50
5808;DHT22;2930;42.678;23.312;2022-12-24T08:51:54;8.50;80.80
5808;DHT22;2930;42.678;23.312;2022-12-24T08:54:20;8.60;81.00
5808;DHT22;2930;42.678;23.312;2022-12-24T08:56:49;8.60;81.00
5808;DHT22;2930;42.678;23.312;2022-12-24T08:59:15;8.70;80.80
5808;DHT22;2930;42.678;23.312;2022-12-24T09:01:42;8.70;81.10
5808;DHT22;2930;42.678;23.312;2022-12-24T09:04:09;8.80;80.60
5808;DHT22;2930;42.678;23.312;2022-12-24T09:06:36;8.80;80.60
5808;DHT22;2930;42.678;23.312;2022-12-24T09:09:04;8.70;80.30
5808;DHT22;2930;42.678;23.312;2022-12-24T09:11:34;8.70;79.70
5808;DHT22;2930;42.678;23.312;2022-12-24T09:14:01;8.70;80.50
5808;DHT22;2930;42.678;23.312;2022-12-24T09:16:28;8.70;80.50
5808;DHT22;2930;42.678;23.312;2022-12-24T09:18:56;8.70;80.50
5808;DHT22;2930;42.678;23.312;2022-12-24T09:21:23;8.70;80.10
5808;DHT22;2930;42.678;23.312;2022-12-24T09:23:51;8.60;80.50
5808;DHT22;2930;42.678;23.312;2022-12-24T09:26:23;8.70;80.60
5808;DHT22;2930;42.678;23.312;2022-12-24T09:28:51;8.70;80.70
5808;DHT22;2930;42.678;23.312;2022-12-24T09:31:18;8.70;80.70
5808;DHT22;2930;42.678;23.312;2022-12-24T09:33:48;8.80;80.90
5808;DHT22;2930;42.678;23.312;2022-12-24T09:36:18;8.90;80.90
5808;DHT22;2930;42.678;23.312;2022-12-24T09:38:51;9.00;80.60
5808;DHT22;2930;42.678;23.312;2022-12-24T09:46:48;9.20;80.30
5808;DHT22;2930;42.678;23.312;2022-12-24T09:49:36;9.40;80.40
5808;DHT22;2930;42.678;23.312;2022-12-24T09:52:13;9.40;79.60
5808;DHT22;2930;42.678;23.312;2022-12-24T09:54:49;9.40;79.90
5808;DHT22;2930;42.678;23.312;2022-12-24T09:57:31;9.50;79.20
5808;DHT22;2930;42.678;23.312;2022-12-24T10:00:03;9.60;78.90
5808;DHT22;2930;42.678;23.312;2022-12-24T10:02:32;9.60;79.20
5808;DHT22;2930;42.678;23.312;2022-12-24T10:05:04;9.70;78.90
5808;DHT22;2930;42.678;23.312;2022-12-24T10:07:58;9.70;78.70
5808;DHT22;2930;42.678;23.312;2022-12-24T10:24:49;9.60;78.90
5808;DHT22;2930;42.678;23.312;2022-12-24T10:27:29;9.80;78.00
5808;DHT22;2930;42.678;23.312;2022-12-24T10:30:05;9.80;78.10
5808;DHT22;2930;42.678;23.312;2022-12-24T10:32:44;9.90;77.70
5808;DHT22;2930;42.678;23.312;2022-12-24T10:37:46;10.20;77.90
5808;DHT22;2930;42.678;23.312;2022-12-24T10:42:52;10.50;76.50
5808;DHT22;2930;42.678;23.312;2022-12-24T10:45:24;10.60;76.80
5808;DHT22;2930;42.678;23.312;2022-12-24T10:47:56;10.70;76.30
5808;DHT22;2930;42.678;23.312;2022-12-24T10:50:36;10.70;76.00
5808;DHT22;2930;42.678;23.312;2022-12-24T10:54:05;10.80;75.60
5808;DHT22;2930;42.678;23.312;2022-12-24T10:56:06;10.90;76.20
5808;DHT22;2930;42.678;23.312;2022-12-24T10:58:35;10.80;74.70
5808;DHT22;2930;42.678;23.312;2022-12-24T11:01:02;10.70;74.30
5808;DHT22;2930;42.678;23.312;2022-12-24T11:03:32;10.80;74.80
5808;DHT22;2930;42.678;23.312;2022-12-24T11:08:42;10.60;75.00
5808;DHT22;2930;42.678;23.312;2022-12-24T11:16:33;10.20;75.10
5808;DHT22;2930;42.678;23.312;2022-12-24T11:19:05;10.20;75.90
5808;DHT22;2930;42.678;23.312;2022-12-24T11:21:44;10.20;76.40
5808;DHT22;2930;42.678;23.312;2022-12-24T11:24:25;10.30;75.80
5808;DHT22;2930;42.678;23.312;2022-12-24T11:36:03;10.20;77.30
5808;DHT22;2930;42.678;23.312;2022-12-24T11:38:35;10.60;78.00
5808;DHT22;2930;42.678;23.312;2022-12-24T11:41:16;10.90;77.50
5808;DHT22;2930;42.678;23.312;2022-12-24T11:43:49;11.40;77.20
5808;DHT22;2930;42.678;23.312;2022-12-24T11:46:43;12.10;77.60
5808;DHT22;2930;42.678;23.312;2022-12-24T11:49:29;12.90;77.50
5808;DHT22;2930;42.678;23.312;2022-12-24T11:57:45;14.30;69.40
5808;DHT22;2930;42.678;23.312;2022-12-24T12:00:12;14.40;68.30
5808;DHT22;2930;42.678;23.312;2022-12-24T12:13:12;13.80;68.90
5808;DHT22;2930;42.678;23.312;2022-12-24T12:15:54;14.20;70.10
5808;DHT22;2930;42.678;23.312;2022-12-24T12:18:35;14.50;69.20
5808;DHT22;2930;42.678;23.312;2022-12-24T12:21:23;14.50;67.60
5808;DHT22;2930;42.678;23.312;2022-12-24T12:24:17;14.40;67.60
5808;DHT22;2930;42.678;23.312;2022-12-24T12:26:54;14.40;69.00
5808;DHT22;2930;42.678;23.312;2022-12-24T12:29:35;14.30;67.20
5808;DHT22;2930;42.678;23.312;2022-12-24T12:32:09;14.10;67.80
5808;DHT22;2930;42.678;23.312;2022-12-24T12:34:42;14.00;68.30
5808;DHT22;2930;42.678;23.312;2022-12-24T12:37:23;14.00;68.40
5808;DHT22;2930;42.678;23.312;2022-12-24T12:39:52;13.90;69.00
5808;DHT22;2930;42.678;23.312;2022-12-24T12:42:33;13.90;68.40
5808;DHT22;2930;42.678;23.312;2022-12-24T12:45:22;13.80;68.60
5808;DHT22;2930;42.678;23.312;2022-12-24T12:51:07;13.80;68.70
5808;DHT22;2930;42.678;23.312;2022-12-24T12:54:08;13.80;69.10
5808;DHT22;2930;42.678;23.312;2022-12-24T12:56:42;13.70;69.40
5808;DHT22;2930;42.678;23.312;2022-12-24T12:59:19;13.60;69.40
5808;DHT22;2930;42.678;23.312;2022-12-24T13:16:37;12.80;69.90
5808;DHT22;2930;42.678;23.312;2022-12-24T13:22:15;12.40;70.70
5808;DHT22;2930;42.678;23.312;2022-12-24T13:24:52;12.30;70.90
5808;DHT22;2930;42.678;23.312;2022-12-24T13:27:31;12.10;71.20
5808;DHT22;2930;42.678;23.312;2022-12-24T13:30:37;12.00;71.70
5808;DHT22;2930;42.678;23.312;2022-12-24T13:33:10;11.80;72.70
5808;DHT22;2930;42.678;23.312;2022-12-24T13:35:56;11.70;72.70
5808;DHT22;2930;42.678;23.312;2022-12-24T13:40:55;11.70;72.90
5808;DHT22;2930;42.678;23.312;2022-12-24T13:44:21;11.50;72.90
5808;DHT22;2930;42.678;23.312;2022-12-24T13:49:50;11.20;74.00
5808;DHT22;2930;42.678;23.312;2022-12-24T13:52:22;11.10;74.30
5808;DHT22;2930;42.678;23.312;2022-12-24T13:55:03;11.00;74.20
5808;DHT22;2930;42.678;23.312;2022-12-24T13:57:52;10.90;74.40
5808;DHT22;2930;42.678;23.312;2022-12-24T14:00:43;10.90;74.30
5808;DHT22;2930;42.678;23.312;2022-12-24T14:03:34;10.80;74.20
5808;DHT22;2930;42.678;23.312;2022-12-24T14:06:29;10.70;74.50
5808;DHT22;2930;42.678;23.312;2022-12-24T14:09:16;10.60;74.90
5808;DHT22;2930;42.678;23.312;2022-12-24T14:14:36;10.40;75.70
5808;DHT22;2930;42.678;23.312;2022-12-24T14:17:24;10.30;75.80
5808;DHT22;2930;42.678;23.312;2022-12-24T14:19:56;10.30;75.90
5808;DHT22;2930;42.678;23.312;2022-12-24T14:22:32;10.30;75.70
5808;DHT22;2930;42.678;23.312;2022-12-24T14:25:13;10.20;76.20
5808;DHT22;2930;42.678;23.312;2022-12-24T14:27:45;10.20;76.00
5808;DHT22;2930;42.678;23.312;2022-12-24T14:30:35;10.20;76.30
5808;DHT22;2930;42.678;23.312;2022-12-24T14:33:02;10.20;77.10
5808;DHT22;2930;42.678;23.312;2022-12-24T14:35:35;10.20;76.90
5808;DHT22;2930;42.678;23.312;2022-12-24T14:38:04;10.10;78.60
5808;DHT22;2930;42.678;23.312;2022-12-24T14:41:01;10.00;78.70
5808;DHT22;2930;42.678;23.312;2022-12-24T14:46:52;10.00;80.00
5808;DHT22;2930;42.678;23.312;2022-12-24T14:49:43;10.00;80.90
5808;DHT22;2930;42.678;23.312;2022-12-24T14:52:35;9.90;82.20
5808;DHT22;2930;42.678;23.312;2022-12-24T14:58:35;9.90;83.20
5808;DHT22;2930;42.678;23.312;2022-12-24T15:01:21;9.90;83.20
5808;DHT22;2930;42.678;23.312;2022-12-24T15:04:01;9.90;84.00
5808;DHT22;2930;42.678;23.312;2022-12-24T15:06:30;9.90;84.40
5808;DHT22;2930;42.678;23.312;2022-12-24T15:08:58;9.90;84.70
5808;DHT22;2930;42.678;23.312;2022-12-24T15:11:24;9.90;85.00
5808;DHT22;2930;42.678;23.312;2022-12-24T15:13:56;9.90;85.00
5808;DHT22;2930;42.678;23.312;2022-12-24T15:16:34;9.90;85.00
5808;DHT22;2930;42.678;23.312;2022-12-24T15:19:23;9.90;85.30
5808;DHT22;2930;42.678;23.312;2022-12-24T15:21:56;9.80;85.70
5808;DHT22;2930;42.678;23.312;2022-12-24T15:24:42;9.80;86.20
5808;DHT22;2930;42.678;23.312;2022-12-24T15:27:18;9.70;86.80
5808;DHT22;2930;42.678;23.312;2022-12-24T15:29:50;9.80;86.70
5808;DHT22;2930;42.678;23.312;2022-12-24T15:32:21;9.80;86.40
5808;DHT22;2930;42.678;23.312;2022-12-24T15:34:54;9.80;86.50
5808;DHT22;2930;42.678;23.312;2022-12-24T15:37:26;9.80;86.20
5808;DHT22;2930;42.678;23.312;2022-12-24T15:43:02;9.80;86.60
5808;DHT22;2930;42.678;23.312;2022-12-24T15:45:39;9.80;86.70
5808;DHT22;2930;42.678;23.312;2022-12-24T15:48:09;9.70;87.30
5808;DHT22;2930;42.678;23.312;2022-12-24T15:50:44;9.70;87.10
5808;DHT22;2930;42.678;23.312;2022-12-24T15:58:39;9.70;87.30
5808;DHT22;2930;42.678;23.312;2022-12-24T16:04:12;9.60;87.90
5808;DHT22;2930;42.678;23.312;2022-12-24T16:07:02;9.60;87.30
5808;DHT22;2930;42.678;23.312;2022-12-24T16:12:09;9.70;86.90
5808;DHT22;2930;42.678;23.312;2022-12-24T16:14:47;9.70;87.20
5808;DHT22;2930;42.678;23.312;2022-12-24T16:17:24;9.70;86.90
5808;DHT22;2930;42.678;23.312;2022-12-24T16:19:54;9.70;86.90
5808;DHT22;2930;42.678;23.312;2022-12-24T16:22:22;9.70;86.90
5808;DHT22;2930;42.678;23.312;2022-12-24T16:25:27;9.70;86.90
5808;DHT22;2930;42.678;23.312;2022-12-24T16:27:58;9.80;86.30
5808;DHT22;2930;42.678;23.312;2022-12-24T16:30:33;9.80;86.40
5808;DHT22;2930;42.678;23.312;2022-12-24T16:33:05;9.80;86.20
5808;DHT22;2930;42.678;23.312;2022-12-24T16:35:39;9.80;85.90
5808;DHT22;2930;42.678;23.312;2022-12-24T16:38:09;9.90;86.10
5808;DHT22;2930;42.678;23.312;2022-12-24T16:40:41;9.90;85.90
5808;DHT22;2930;42.678;23.312;2022-12-24T16:43:11;9.90;85.70
5808;DHT22;2930;42.678;23.312;2022-12-24T16:46:03;9.90;86.20
5808;DHT22;2930;42.678;23.312;2022-12-24T16:48:42;9.90;86.10
5808;DHT22;2930;42.678;23.312;2022-12-24T16:51:13;9.90;86.10
5808;DHT22;2930;42.678;23.312;2022-12-24T16:53:50;9.90;86.10
5808;DHT22;2930;42.678;23.312;2022-12-24T16:56:20;9.90;86.40
5808;DHT22;2930;42.678;23.312;2022-12-24T16:58:50;9.90;86.10
5808;DHT22;2930;42.678;23.312;2022-12-24T17:01:20;9.90;85.90
5808;DHT22;2930;42.678;23.312;2022-12-24T17:03:50;9.90;86.70
5808;DHT22;2930;42.678;23.312;2022-12-24T17:06:17;9.90;86.80
5808;DHT22;2930;42.678;23.312;2022-12-24T17:08:42;9.90;86.70
5808;DHT22;2930;42.678;23.312;2022-12-24T17:11:09;9.90;86.70
5808;DHT22;2930;42.678;23.312;2022-12-24T17:13:36;9.90;87.10
5808;DHT22;2930;42.678;23.312;2022-12-24T17:16:03;9.90;87.10
5808;DHT22;2930;42.678;23.312;2022-12-24T17:18:30;9.80;87.40
5808;DHT22;2930;42.678;23.312;2022-12-24T17:21:01;9.80;87.50
5808;DHT22;2930;42.678;23.312;2022-12-24T17:23:28;9.80;87.70
5808;DHT22;2930;42.678;23.312;2022-12-24T17:25:55;9.70;88.00
5808;DHT22;2930;42.678;23.312;2022-12-24T17:28:23;9.70;88.40
5808;DHT22;2930;42.678;23.312;2022-12-24T17:30:50;9.70;88.60
5808;DHT22;2930;42.678;23.312;2022-12-24T17:33:20;9.60;88.80
5808;DHT22;2930;42.678;23.312;2022-12-24T17:35:50;9.60;88.50
5808;DHT22;2930;42.678;23.312;2022-12-24T17:38:17;9.60;88.80
5808;DHT22;2930;42.678;23.312;2022-12-24T17:40:44;9.60;89.10
5808;DHT22;2930;42.678;23.312;2022-12-24T17:43:13;9.60;89.00
5808;DHT22;2930;42.678;23.312;2022-12-24T17:45:40;9.60;89.10
5808;DHT22;2930;42.678;23.312;2022-12-24T17:48:07;9.60;89.30
5808;DHT22;2930;42.678;23.312;2022-12-24T17:50:38;9.60;89.10
5808;DHT22;2930;42.678;23.312;2022-12-24T17:53:05;9.60;89.10
5808;DHT22;2930;42.678;23.312;2022-12-24T17:55:40;9.60;89.30
5808;DHT22;2930;42.678;23.312;2022-12-24T17:58:07;9.60;89.40
5808;DHT22;2930;42.678;23.312;2022-12-24T18:00:37;9.50;89.70
5808;DHT22;2930;42.678;23.312;2022-12-24T18:03:04;9.60;89.60
5808;DHT22;2930;42.678;23.312;2022-12-24T18:05:33;9.60;89.50
5808;DHT22;2930;42.678;23.312;2022-12-24T18:08:00;9.50;90.10
5808;DHT22;2930;42.678;23.312;2022-12-24T18:10:27;9.60;90.00
5808;DHT22;2930;42.678;23.312;2022-12-24T18:12:53;9.60;89.90
5808;DHT22;2930;42.678;23.312;2022-12-24T18:15:21;9.50;90.10
5808;DHT22;2930;42.678;23.312;2022-12-24T18:17:55;9.60;90.20
5808;DHT22;2930;42.678;23.312;2022-12-24T18:20:22;9.60;90.00
5808;DHT22;2930;42.678;23.312;2022-12-24T18:22:48;9.60;90.10
5808;DHT22;2930;42.678;23.312;2022-12-24T18:25:15;9.50;90.20
5808;DHT22;2930;42.678;23.312;2022-12-24T18:27:41;9.50;90.10
5808;DHT22;2930;42.678;23.312;2022-12-24T18:30:08;9.60;89.90
5808;DHT22;2930;42.678;23.312;2022-12-24T18:32:35;9.60;89.60
5808;DHT22;2930;42.678;23.312;2022-12-24T18:35:01;9.50;90.10
5808;DHT22;2930;42.678;23.312;2022-12-24T18:37:28;9.50;90.30
5808;DHT22;2930;42.678;23.312;2022-12-24T18:39:54;9.50;90.50
5808;DHT22;2930;42.678;23.312;2022-12-24T18:42:20;9.50;90.70
5808;DHT22;2930;42.678;23.312;2022-12-24T18:44:47;9.40;91.10
5808;DHT22;2930;42.678;23.312;2022-12-24T18:47:13;9.40;91.00
5808;DHT22;2930;42.678;23.312;2022-12-24T18:49:39;9.40;91.40
5808;DHT22;2930;42.678;23.312;2022-12-24T18:52:06;9.30;92.10
5808;DHT22;2930;42.678;23.312;2022-12-24T18:54:32;9.30;92.30
5808;DHT22;2930;42.678;23.312;2022-12-24T18:56:58;9.30;92.00
5808;DHT22;2930;42.678;23.312;2022-12-24T18:59:23;9.40;91.80
5808;DHT22;2930;42.678;23.312;2022-12-24T19:01:49;9.30;92.30
5808;DHT22;2930;42.678;23.312;2022-12-24T19:04:15;9.30;92.30
5808;DHT22;2930;42.678;23.312;2022-12-24T19:06:41;9.30;92.90